createdAt,value
2024-03-11T00:00:02.040Z,13.28
2024-03-11T00:02:28.969Z,13.30
2024-03-11T00:04:56.006Z,13.27
2024-03-11T00:07:22.821Z,13.17
2024-03-11T00:09:49.974Z,13.25
2024-03-11T00:12:18.829Z,13.27
2024-03-11T00:14:48.783Z,13.26
2024-03-11T00:17:16.210Z,13.27
2024-03-11T00:19:43.003Z,13.15
2024-03-11T00:22:09.797Z,12.67
2024-03-11T00:24:36.691Z,12.45
2024-03-11T00:27:08.970Z,11.14
2024-03-11T00:29:36.371Z,11.96
2024-03-11T00:32:09.245Z,12.21
2024-03-11T00:34:36.080Z,12.61
2024-03-11T00:37:03.694Z,12.61
2024-03-11T00:39:31.803Z,12.70
2024-03-11T00:41:58.555Z,11.76
2024-03-11T00:44:25.347Z,11.99
2024-03-11T00:46:52.155Z,12.47
2024-03-11T00:49:20.879Z,12.58
2024-03-11T00:51:47.756Z,12.70
2024-03-11T00:54:14.830Z,12.74
2024-03-11T00:56:41.601Z,12.91
2024-03-11T00:59:08.352Z,12.84
2024-03-11T01:01:35.109Z,12.49
2024-03-11T01:04:01.786Z,12.76
2024-03-11T01:06:28.676Z,12.89
2024-03-11T01:08:56.142Z,12.99
2024-03-11T01:11:24.455Z,13.03
2024-03-11T01:13:51.260Z,12.81
2024-03-11T01:16:18.059Z,12.57
2024-03-11T01:18:48.905Z,12.81
2024-03-11T01:21:15.531Z,12.86
2024-03-11T01:23:42.169Z,12.94
2024-03-11T01:26:08.935Z,12.63
2024-03-11T01:28:36.951Z,12.01
2024-03-11T01:31:05.609Z,11.81
2024-03-11T01:33:32.312Z,11.70
2024-03-11T01:36:00.539Z,11.89
2024-03-11T01:38:29.992Z,12.21
2024-03-11T01:40:57.765Z,12.21
2024-03-11T01:43:26.319Z,11.86
2024-03-11T01:45:54.694Z,11.83
2024-03-11T01:48:21.632Z,11.32
2024-03-11T01:50:49.395Z,11.50
2024-03-11T01:53:16.761Z,11.87
2024-03-11T01:55:44.804Z,12.33
2024-03-11T01:58:12.236Z,12.30
2024-03-11T02:00:38.952Z,12.50
2024-03-11T02:03:07.698Z,12.29
2024-03-11T02:05:41.780Z,12.63
2024-03-11T02:08:09.021Z,12.08
2024-03-11T02:10:35.868Z,12.33
2024-03-11T02:13:02.912Z,12.44
2024-03-11T02:15:30.313Z,12.21
2024-03-11T02:17:57.575Z,12.05
2024-03-11T02:20:24.538Z,11.96
2024-03-11T02:22:55.998Z,12.35
2024-03-11T02:25:30.565Z,10.44
2024-03-11T02:27:59.500Z,10.89
2024-03-11T02:30:26.549Z,11.63
2024-03-11T02:32:53.586Z,11.76
2024-03-11T02:35:21.430Z,10.77
2024-03-11T02:37:49.915Z,11.06
2024-03-11T02:40:19.979Z,11.68
2024-03-11T02:42:47.388Z,11.24
2024-03-11T02:45:16.482Z,11.71
2024-03-11T02:47:44.448Z,12.00
2024-03-11T02:50:11.949Z,12.03
2024-03-11T02:52:38.809Z,12.19
2024-03-11T02:55:07.322Z,11.91
2024-03-11T02:57:34.337Z,12.18
2024-03-11T03:00:01.447Z,12.15
2024-03-11T03:02:28.798Z,12.24
2024-03-11T03:04:57.396Z,11.85
2024-03-11T03:07:27.162Z,12.03
2024-03-11T03:09:54.687Z,12.28
2024-03-11T03:12:22.052Z,12.40
2024-03-11T03:14:49.051Z,12.33
2024-03-11T03:17:16.057Z,9.51
2024-03-11T03:19:42.821Z,10.45
2024-03-11T03:22:09.551Z,11.46
2024-03-11T03:24:36.368Z,11.95
2024-03-11T03:27:03.128Z,12.07
2024-03-11T03:29:31.768Z,12.16
2024-03-11T03:31:59.171Z,12.12
2024-03-11T03:34:26.008Z,12.29
2024-03-11T03:36:52.804Z,12.15
2024-03-11T03:39:19.606Z,11.30
2024-03-11T03:41:46.558Z,11.79
2024-03-11T03:44:13.728Z,11.25
2024-03-11T03:46:42.321Z,11.07
2024-03-11T03:49:09.091Z,10.51
2024-03-11T03:51:35.854Z,9.64
2024-03-11T03:54:02.666Z,10.18
2024-03-11T03:56:30.667Z,11.38
2024-03-11T03:58:57.783Z,11.66
2024-03-11T04:01:24.896Z,11.90
2024-03-11T04:03:51.868Z,12.02
2024-03-11T04:06:18.635Z,12.28
2024-03-11T04:08:45.802Z,12.35
2024-03-11T04:11:12.845Z,12.38
2024-03-11T04:13:41.164Z,11.72
2024-03-11T04:16:08.535Z,12.00
2024-03-11T04:18:35.534Z,12.19
2024-03-11T04:21:02.991Z,12.15
2024-03-11T04:23:30.378Z,11.46
2024-03-11T04:25:58.168Z,11.93
2024-03-11T04:28:28.836Z,10.95
2024-03-11T04:30:56.711Z,10.17
2024-03-11T04:33:23.700Z,11.29
2024-03-11T04:35:50.783Z,11.63
2024-03-11T04:38:19.378Z,11.93
2024-03-11T04:40:46.307Z,12.14
2024-03-11T04:43:13.001Z,12.29
2024-03-11T04:45:40.172Z,11.72
2024-03-11T04:48:08.627Z,11.98
2024-03-11T04:50:39.528Z,12.22
2024-03-11T04:53:08.584Z,12.14
2024-03-11T04:55:36.107Z,12.24
2024-03-11T04:58:02.850Z,12.40
2024-03-11T05:00:31.580Z,12.45
2024-03-11T05:03:00.330Z,12.35
2024-03-11T05:05:28.675Z,12.31
2024-03-11T05:07:56.590Z,12.33
2024-03-11T05:10:23.430Z,12.16
2024-03-11T05:12:50.985Z,11.36
2024-03-11T05:15:21.063Z,11.88
2024-03-11T05:17:48.190Z,12.23
2024-03-11T05:20:19.542Z,12.44
2024-03-11T05:22:47.880Z,12.52
2024-03-11T05:25:19.389Z,12.39
2024-03-11T05:27:48.434Z,12.21
2024-03-11T05:30:16.731Z,12.30
2024-03-11T05:32:43.737Z,12.38
2024-03-11T05:35:10.827Z,12.29
2024-03-11T05:37:37.762Z,12.40
2024-03-11T05:40:07.941Z,12.35
2024-03-11T05:42:35.600Z,12.32
2024-03-11T05:45:03.302Z,12.44
2024-03-11T05:47:30.057Z,12.54
2024-03-11T05:49:56.706Z,12.55
2024-03-11T05:52:26.659Z,12.59
2024-03-11T05:54:54.916Z,12.72
2024-03-11T05:57:31.168Z,12.69
2024-03-11T05:59:58.213Z,12.61
2024-03-11T06:02:25.068Z,12.69
2024-03-11T06:04:51.853Z,12.54
2024-03-11T06:07:25.329Z,12.68
2024-03-11T06:09:53.301Z,12.80
2024-03-11T06:12:21.648Z,12.85
2024-03-11T06:14:49.721Z,12.83
2024-03-11T06:17:17.808Z,12.76
2024-03-11T06:19:46.043Z,12.89
2024-03-11T06:22:13.604Z,12.94
2024-03-11T06:24:40.449Z,12.99
2024-03-11T06:27:07.434Z,12.97
2024-03-11T06:29:35.260Z,13.15
2024-03-11T06:32:07.068Z,13.19
2024-03-11T06:34:36.087Z,13.17
2024-03-11T06:37:03.087Z,13.18
2024-03-11T06:39:31.001Z,13.04
2024-03-11T06:41:58.514Z,13.28
2024-03-11T06:44:33.699Z,13.26
2024-03-11T06:47:09.672Z,13.24
2024-03-11T06:49:37.655Z,13.24
2024-03-11T06:52:04.678Z,13.37
2024-03-11T06:54:31.647Z,13.30
2024-03-11T06:56:58.303Z,13.30
2024-03-11T06:59:27.429Z,13.27
2024-03-11T07:01:54.342Z,13.35
2024-03-11T07:04:23.426Z,13.21
2024-03-11T07:06:50.066Z,13.39
2024-03-11T07:09:16.919Z,13.63
2024-03-11T07:11:44.412Z,13.52
2024-03-11T07:14:15.708Z,13.60
2024-03-11T07:16:44.601Z,12.19
2024-03-11T07:19:12.062Z,12.40
2024-03-11T07:21:40.451Z,12.03
2024-03-11T07:24:07.782Z,10.95
2024-03-11T07:26:34.576Z,11.09
2024-03-11T07:29:01.205Z,12.34
2024-03-11T07:31:27.874Z,12.49
2024-03-11T07:33:55.667Z,12.67
2024-03-11T07:36:23.273Z,12.94
2024-03-11T07:38:50.364Z,13.17
2024-03-11T07:41:17.356Z,12.15
2024-03-11T07:43:44.569Z,12.44
2024-03-11T07:46:12.831Z,12.89
2024-03-11T07:48:40.756Z,12.67
2024-03-11T07:51:09.293Z,12.60
2024-03-11T07:53:36.591Z,12.39
2024-03-11T07:56:05.770Z,12.83
2024-03-11T07:58:36.137Z,12.53
2024-03-11T08:01:03.717Z,13.17
2024-03-11T08:03:31.089Z,13.45
2024-03-11T08:06:00.054Z,13.06
2024-03-11T08:08:27.576Z,13.13
2024-03-11T08:10:55.718Z,13.58
2024-03-11T08:13:22.888Z,14.08
2024-03-11T08:15:50.524Z,13.71
2024-03-11T08:18:17.922Z,13.97
2024-03-11T08:20:45.118Z,13.79
2024-03-11T08:23:11.969Z,13.89
2024-03-11T08:25:39.051Z,13.80
2024-03-11T08:28:06.236Z,14.07
2024-03-11T08:30:32.980Z,14.29
2024-03-11T08:33:01.287Z,13.49
2024-03-11T08:35:28.471Z,13.89
2024-03-11T08:37:55.168Z,13.53
2024-03-11T08:40:24.044Z,13.00
2024-03-11T08:42:51.934Z,12.96
2024-03-11T08:45:25.296Z,13.20
2024-03-11T08:47:53.216Z,13.57
2024-03-11T08:50:23.582Z,14.00
2024-03-11T08:52:51.498Z,14.26
2024-03-11T08:55:18.979Z,13.79
2024-03-11T08:57:47.034Z,14.21
2024-03-11T09:00:16.929Z,14.43
2024-03-11T09:02:47.597Z,14.10
2024-03-11T09:05:19.060Z,13.45
2024-03-11T09:07:47.667Z,14.04
2024-03-11T09:10:17.837Z,13.82
2024-03-11T09:12:48.454Z,14.54
2024-03-11T09:15:20.123Z,14.14
2024-03-11T09:17:52.818Z,14.58
2024-03-11T09:20:22.452Z,14.59
2024-03-11T09:22:51.209Z,14.12
2024-03-11T09:25:26.591Z,14.25
2024-03-11T09:27:55.019Z,14.41
2024-03-11T09:30:21.920Z,15.06
2024-03-11T09:32:51.115Z,14.87
2024-03-11T09:35:18.966Z,14.40
2024-03-11T09:37:46.337Z,14.89
2024-03-11T09:40:18.305Z,14.91
2024-03-11T09:42:49.452Z,14.56
2024-03-11T09:45:20.438Z,14.28
2024-03-11T09:47:58.234Z,14.19
2024-03-11T09:50:38.938Z,14.25
2024-03-11T09:53:20.583Z,14.31
2024-03-11T09:55:47.802Z,14.12
2024-03-11T09:58:17.737Z,14.20
2024-03-11T10:00:53.117Z,14.68
2024-03-11T10:03:23.449Z,14.66
2024-03-11T10:06:04.895Z,14.63
2024-03-11T10:08:37.927Z,14.73
2024-03-11T10:11:26.353Z,14.76
2024-03-11T10:13:54.259Z,15.19
2024-03-11T10:16:28.953Z,14.94
2024-03-11T10:19:23.359Z,14.76
2024-03-11T10:22:02.817Z,14.47
2024-03-11T10:24:31.853Z,14.75
2024-03-11T10:26:59.334Z,14.98
2024-03-11T10:29:35.061Z,15.37
2024-03-11T10:32:01.861Z,14.53
2024-03-11T10:34:30.414Z,14.97
2024-03-11T10:37:01.682Z,15.11
2024-03-11T10:39:38.952Z,15.58
2024-03-11T10:42:10.527Z,15.65
2024-03-11T10:44:41.590Z,15.46
2024-03-11T10:47:23.394Z,15.33
2024-03-11T10:49:52.636Z,15.24
2024-03-11T10:52:27.009Z,15.65
2024-03-11T10:55:11.463Z,15.47
2024-03-11T10:57:46.827Z,15.32
2024-03-11T11:00:21.756Z,14.92
2024-03-11T11:02:56.876Z,14.87
2024-03-11T11:05:34.821Z,14.76
2024-03-11T11:08:06.157Z,14.88
2024-03-11T11:10:37.845Z,15.66
2024-03-11T11:13:07.003Z,14.83
2024-03-11T11:15:38.154Z,15.17
2024-03-11T11:18:08.928Z,15.66
2024-03-11T11:20:44.982Z,16.01
2024-03-11T11:23:12.357Z,14.99
2024-03-11T11:25:43.730Z,15.73
2024-03-11T11:28:14.924Z,15.64
2024-03-11T11:30:43.636Z,15.62
2024-03-11T11:33:14.229Z,15.84
2024-03-11T11:35:45.306Z,15.84
2024-03-11T11:38:28.849Z,15.49
2024-03-11T11:40:55.654Z,15.81
2024-03-11T11:43:22.699Z,16.13
2024-03-11T11:45:55.087Z,16.56
2024-03-11T11:48:27.226Z,15.84
2024-03-11T11:51:02.533Z,15.61
2024-03-11T11:53:32.126Z,16.35
2024-03-11T11:55:59.733Z,15.42
2024-03-11T11:58:27.318Z,15.47
2024-03-11T12:01:05.924Z,15.36
2024-03-11T12:03:39.106Z,15.88
2024-03-11T12:06:21.161Z,15.41
2024-03-11T12:08:49.381Z,15.52
2024-03-11T12:11:19.370Z,15.99
2024-03-11T12:13:47.930Z,16.37
2024-03-11T12:16:21.911Z,15.86
2024-03-11T12:19:03.021Z,15.39
2024-03-11T12:21:30.293Z,15.42
2024-03-11T12:23:57.700Z,15.62
2024-03-11T12:26:32.004Z,15.84
2024-03-11T12:29:08.105Z,16.27
2024-03-11T12:31:38.828Z,15.99
2024-03-11T12:34:10.313Z,15.75
2024-03-11T12:36:42.712Z,16.22
2024-03-11T12:39:28.956Z,16.62
2024-03-11T12:41:58.581Z,16.22
2024-03-11T12:44:26.598Z,16.20
2024-03-11T12:46:55.048Z,16.27
2024-03-11T12:49:23.640Z,16.40
2024-03-11T12:52:11.293Z,16.56
2024-03-11T12:54:40.789Z,16.88
2024-03-11T12:57:18.546Z,16.16
2024-03-11T12:59:59.213Z,16.88
2024-03-11T13:02:25.855Z,16.41
2024-03-11T13:04:54.715Z,16.57
2024-03-11T13:07:24.811Z,16.77
2024-03-11T13:09:55.790Z,16.85
2024-03-11T13:12:22.711Z,16.79
2024-03-11T13:14:52.892Z,16.58
2024-03-11T13:17:20.814Z,16.69
2024-03-11T13:19:48.813Z,17.08
2024-03-11T13:22:19.050Z,17.08
2024-03-11T13:24:47.512Z,17.43
2024-03-11T13:27:15.091Z,17.07
2024-03-11T13:29:42.736Z,17.09
2024-03-11T13:32:09.773Z,17.38
2024-03-11T13:34:36.841Z,17.13
2024-03-11T13:37:05.374Z,17.05
2024-03-11T13:39:38.308Z,16.80
2024-03-11T13:42:15.040Z,16.54
2024-03-11T13:44:42.743Z,16.76
2024-03-11T13:47:10.522Z,16.59
2024-03-11T13:49:41.289Z,16.56
2024-03-11T13:52:10.164Z,16.33
2024-03-11T13:54:39.204Z,16.76
2024-03-11T13:57:09.479Z,16.41
2024-03-11T13:59:36.301Z,16.59
2024-03-11T14:02:03.929Z,16.68
2024-03-11T14:04:30.745Z,16.85
2024-03-11T14:06:57.483Z,16.48
2024-03-11T14:09:26.731Z,16.78
2024-03-11T14:11:54.024Z,17.10
2024-03-11T14:14:20.871Z,17.40
2024-03-11T14:16:48.158Z,17.08
2024-03-11T14:19:17.603Z,17.14
2024-03-11T14:21:45.755Z,17.19
2024-03-11T14:24:15.061Z,16.96
2024-03-11T14:26:42.927Z,17.39
2024-03-11T14:29:16.466Z,17.48
2024-03-11T14:31:47.079Z,17.41
2024-03-11T14:34:15.086Z,17.35
2024-03-11T14:36:45.152Z,16.77
2024-03-11T14:39:18.903Z,16.63
2024-03-11T14:41:47.899Z,17.07
2024-03-11T14:44:15.455Z,17.21
2024-03-11T14:46:48.951Z,16.68
2024-03-11T14:49:23.907Z,16.04
2024-03-11T14:51:54.337Z,15.39
2024-03-11T14:54:28.522Z,14.81
2024-03-11T14:56:56.827Z,15.12
2024-03-11T14:59:24.687Z,15.93
2024-03-11T15:01:55.395Z,14.54
2024-03-11T15:04:23.119Z,15.00
2024-03-11T15:06:49.851Z,15.64
2024-03-11T15:09:19.815Z,15.81
2024-03-11T15:11:49.929Z,15.78
2024-03-11T15:14:17.038Z,15.08
2024-03-11T15:16:46.995Z,15.62
2024-03-11T15:19:13.820Z,15.50
2024-03-11T15:21:40.884Z,15.04
2024-03-11T15:24:10.004Z,15.11
2024-03-11T15:26:39.492Z,15.66
2024-03-11T15:29:10.965Z,15.96
2024-03-11T15:31:37.858Z,14.69
2024-03-11T15:34:04.952Z,14.78
2024-03-11T15:36:36.869Z,15.43
2024-03-11T15:39:04.978Z,15.12
2024-03-11T15:41:31.771Z,15.21
2024-03-11T15:43:58.463Z,13.98
2024-03-11T15:46:29.797Z,14.00
2024-03-11T15:48:59.566Z,13.07
2024-03-11T15:51:27.049Z,14.02
2024-03-11T15:53:54.907Z,13.76
2024-03-11T15:56:22.504Z,13.28
2024-03-11T15:58:51.221Z,14.58
2024-03-11T16:01:23.696Z,14.84
2024-03-11T16:03:52.699Z,14.82
2024-03-11T16:06:20.375Z,14.52
2024-03-11T16:08:47.433Z,14.75
2024-03-11T16:11:14.963Z,14.40
2024-03-11T16:13:41.807Z,14.28
2024-03-11T16:16:09.875Z,13.28
2024-03-11T16:18:37.156Z,14.17
2024-03-11T16:21:04.349Z,13.95
2024-03-11T16:23:32.858Z,14.42
2024-03-11T16:26:02.355Z,14.35
2024-03-11T16:28:29.712Z,13.07
2024-03-11T16:30:56.317Z,13.94
2024-03-11T16:33:25.818Z,12.99
2024-03-11T16:35:52.501Z,13.73
2024-03-11T16:38:19.653Z,13.50
2024-03-11T16:40:47.038Z,14.06
2024-03-11T16:43:17.340Z,14.21
2024-03-11T16:45:49.351Z,14.17
2024-03-11T16:48:17.994Z,13.26
2024-03-11T16:50:49.509Z,14.11
2024-03-11T16:53:22.290Z,14.46
2024-03-11T16:55:52.047Z,13.68
2024-03-11T16:58:18.900Z,13.58
2024-03-11T17:00:50.065Z,13.98
2024-03-11T17:03:17.847Z,14.20
2024-03-11T17:05:45.608Z,13.85
2024-03-11T17:08:16.143Z,14.25
2024-03-11T17:10:46.409Z,14.23
2024-03-11T17:13:16.108Z,13.93
2024-03-11T17:15:43.747Z,13.91
2024-03-11T17:18:13.351Z,14.27
2024-03-11T17:20:46.096Z,14.14
2024-03-11T17:23:17.508Z,14.28
2024-03-11T17:25:46.235Z,14.44
2024-03-11T17:28:17.380Z,14.35
2024-03-11T17:30:47.335Z,14.14
2024-03-11T17:33:19.384Z,14.05
2024-03-11T17:35:50.612Z,14.32
2024-03-11T17:38:20.254Z,14.44
2024-03-11T17:40:50.868Z,14.58
2024-03-11T17:43:20.152Z,14.52
2024-03-11T17:45:48.539Z,14.33
2024-03-11T17:48:17.584Z,14.38
2024-03-11T17:50:45.050Z,14.50
2024-03-11T17:53:13.438Z,14.41
2024-03-11T17:55:41.944Z,14.28
2024-03-11T17:58:12.101Z,14.26
2024-03-11T18:00:41.260Z,14.31
2024-03-11T18:03:10.858Z,14.35
2024-03-11T18:05:38.245Z,14.40
2024-03-11T18:08:08.110Z,14.51
2024-03-11T18:10:37.913Z,14.42
2024-03-11T18:13:12.480Z,13.68
2024-03-11T18:15:42.960Z,13.94
2024-03-11T18:18:14.585Z,13.90
2024-03-11T18:20:42.427Z,14.42
2024-03-11T18:23:14.839Z,14.60
2024-03-11T18:25:43.305Z,13.75
2024-03-11T18:28:10.196Z,13.83
2024-03-11T18:30:37.382Z,12.52
2024-03-11T18:33:06.695Z,13.34
2024-03-11T18:35:36.928Z,13.68
2024-03-11T18:38:07.850Z,13.80
2024-03-11T18:40:35.745Z,14.13
2024-03-11T18:43:05.806Z,13.85
2024-03-11T18:45:33.945Z,14.23
2024-03-11T18:48:02.112Z,14.25
2024-03-11T18:50:29.572Z,14.21
2024-03-11T18:53:00.674Z,14.32
2024-03-11T18:55:31.250Z,14.23
2024-03-11T18:58:00.108Z,14.41
2024-03-11T19:00:28.270Z,14.72
2024-03-11T19:03:01.192Z,14.46
2024-03-11T19:05:29.073Z,14.32
2024-03-11T19:07:56.881Z,14.43
2024-03-11T19:10:26.956Z,14.32
2024-03-11T19:12:54.935Z,14.18
2024-03-11T19:15:25.567Z,14.29
2024-03-11T19:17:52.851Z,14.34
2024-03-11T19:20:24.405Z,14.22
2024-03-11T19:22:58.971Z,13.93
2024-03-11T19:25:29.464Z,14.13
2024-03-11T19:27:59.064Z,14.31
2024-03-11T19:30:29.524Z,14.46
2024-03-11T19:32:58.142Z,14.40
2024-03-11T19:35:25.044Z,14.38
2024-03-11T19:38:15.243Z,14.32
2024-03-11T19:40:45.119Z,13.55
2024-03-11T19:43:30.555Z,13.47
2024-03-11T19:46:27.678Z,13.22
2024-03-11T19:49:31.592Z,13.57
2024-03-11T19:52:02.195Z,13.52
2024-03-11T19:55:03.069Z,13.87
2024-03-11T19:57:54.475Z,13.89
2024-03-11T20:01:13.063Z,13.00
2024-03-11T20:03:54.466Z,12.92
2024-03-11T20:06:45.804Z,13.54
2024-03-11T20:09:49.936Z,13.72
2024-03-11T20:12:41.357Z,13.22
2024-03-11T20:15:29.458Z,13.77
2024-03-11T20:18:22.509Z,13.69
2024-03-11T20:21:27.148Z,13.66
2024-03-11T20:24:07.701Z,13.70
2024-03-11T20:26:43.501Z,13.88
2024-03-11T20:29:26.076Z,13.87
2024-03-11T20:32:00.163Z,13.99
2024-03-11T20:34:26.724Z,13.86
2024-03-11T20:36:53.476Z,13.06
2024-03-11T20:39:20.207Z,13.68
2024-03-11T20:41:47.196Z,13.55
2024-03-11T20:44:13.820Z,13.70
2024-03-11T20:46:40.549Z,13.14
2024-03-11T20:49:09.319Z,12.98
2024-03-11T20:51:40.714Z,13.48
2024-03-11T20:54:07.832Z,13.66
2024-03-11T20:56:34.400Z,13.33
2024-03-11T20:59:01.084Z,13.29
2024-03-11T21:01:29.670Z,13.48
2024-03-11T21:03:57.620Z,13.74
2024-03-11T21:06:24.859Z,13.92
2024-03-11T21:08:53.749Z,13.66
2024-03-11T21:11:21.583Z,13.87
2024-03-11T21:13:48.311Z,13.91
2024-03-11T21:16:19.490Z,13.80
2024-03-11T21:18:48.349Z,13.71
2024-03-11T21:21:23.930Z,13.79
2024-03-11T21:24:19.633Z,13.89
2024-03-11T21:27:11.929Z,12.57
2024-03-11T21:29:38.760Z,12.51
2024-03-11T21:32:05.658Z,13.10
2024-03-11T21:34:32.275Z,13.61
2024-03-11T21:36:58.967Z,13.76
2024-03-11T21:39:28.144Z,13.94
2024-03-11T21:41:54.831Z,14.03
2024-03-11T21:44:21.886Z,12.83
2024-03-11T21:46:49.106Z,13.32
2024-03-11T21:49:15.732Z,13.39
2024-03-11T21:51:42.465Z,13.93
2024-03-11T21:54:10.260Z,14.14
2024-03-11T21:56:36.896Z,14.25
2024-03-11T21:59:04.246Z,13.96
2024-03-11T22:01:30.872Z,14.12
2024-03-11T22:03:57.571Z,14.29
2024-03-11T22:06:24.373Z,14.33
2024-03-11T22:08:53.763Z,14.22
2024-03-11T22:11:20.457Z,14.34
2024-03-11T22:13:47.065Z,14.12
2024-03-11T22:16:13.932Z,13.95
2024-03-11T22:18:40.666Z,13.97
2024-03-11T22:21:07.456Z,14.11
2024-03-11T22:23:34.585Z,14.17
2024-03-11T22:26:01.322Z,14.29
2024-03-11T22:28:27.935Z,14.13
2024-03-11T22:30:54.518Z,14.21
2024-03-11T22:33:21.280Z,14.36
2024-03-11T22:35:48.008Z,14.56
2024-03-11T22:38:14.595Z,14.16
2024-03-11T22:40:41.313Z,13.90
2024-03-11T22:43:07.924Z,13.47
2024-03-11T22:45:34.653Z,13.44
2024-03-11T22:48:02.495Z,13.74
2024-03-11T22:50:29.222Z,13.94
2024-03-11T22:52:55.881Z,13.65
2024-03-11T22:55:22.479Z,13.20
2024-03-11T22:57:49.102Z,13.21
2024-03-11T23:00:34.992Z,13.17
2024-03-11T23:03:01.768Z,12.86
2024-03-11T23:05:28.416Z,13.09
2024-03-11T23:07:54.986Z,12.91
2024-03-11T23:10:27.807Z,12.42
2024-03-11T23:12:55.828Z,12.13
2024-03-11T23:15:23.845Z,12.64
2024-03-11T23:17:51.763Z,13.17
2024-03-11T23:20:19.347Z,13.31
2024-03-11T23:22:46.776Z,13.40
2024-03-11T23:25:13.775Z,13.23
2024-03-11T23:27:40.442Z,12.79
2024-03-11T23:30:14.445Z,12.90
2024-03-11T23:32:44.004Z,12.70
2024-03-11T23:35:10.658Z,12.01
2024-03-11T23:37:38.314Z,11.85
2024-03-11T23:40:20.523Z,11.37
2024-03-11T23:42:51.458Z,11.49
2024-03-11T23:45:18.594Z,11.58
2024-03-11T23:47:46.291Z,11.50
2024-03-11T23:50:13.849Z,10.45
2024-03-11T23:52:43.518Z,10.81
2024-03-11T23:55:14.772Z,10.58
2024-03-11T23:57:41.588Z,11.32
